createdAt,value
2023-05-10T00:01:20.200Z,32.40
2023-05-10T00:03:47.008Z,33.63
2023-05-10T00:06:20.508Z,36.72
2023-05-10T00:09:02.889Z,28.45
2023-05-10T00:11:42.048Z,27.65
2023-05-10T00:14:20.968Z,29.47
2023-05-10T00:16:48.120Z,28.15
2023-05-10T00:51:03.229Z,25.98
2023-05-10T00:53:32.827Z,25.83
2023-05-10T00:59:33.403Z,26.02
2023-05-10T01:02:04.110Z,25.58
2023-05-10T01:05:07.091Z,33.95
2023-05-10T01:07:33.592Z,26.20
2023-05-10T01:10:00.561Z,33.83
2023-05-10T01:12:47.409Z,26.45
2023-05-10T01:45:19.540Z,32.80
2023-05-10T01:48:16.187Z,37.78
2023-05-10T01:50:47.422Z,29.25
2023-05-10T01:53:22.173Z,28.55
2023-05-10T02:09:47.363Z,30.83
2023-05-10T02:15:08.979Z,34.47
2023-05-10T02:17:37.968Z,28.17
2023-05-10T02:51:05.552Z,35.40
2023-05-10T02:54:08.573Z,35.55
2023-05-10T03:06:12.724Z,29.17
2023-05-10T03:08:39.775Z,29.98
2023-05-10T03:11:46.221Z,32.95
2023-05-10T03:27:56.675Z,31.63
2023-05-10T03:36:26.255Z,31.70
2023-05-10T03:44:40.905Z,32.95
2023-05-10T03:47:26.228Z,35.30
2023-05-10T03:49:56.555Z,35.03
2023-05-10T03:52:23.613Z,34.47
2023-05-10T03:54:50.402Z,35.10
2023-05-10T03:57:26.153Z,34.65
2023-05-10T03:59:55.900Z,35.83
2023-05-10T04:02:32.042Z,45.28
2023-05-10T04:04:58.841Z,34.60
2023-05-10T04:07:33.525Z,36.95
2023-05-10T04:10:00.111Z,35.03
2023-05-10T04:12:39.101Z,34.17
2023-05-10T04:15:15.029Z,33.25
2023-05-10T04:17:41.748Z,35.92
2023-05-10T04:20:12.223Z,35.45
2023-05-10T04:22:48.084Z,37.95
2023-05-10T04:25:14.854Z,31.90
2023-05-10T04:27:41.959Z,32.75
2023-05-10T04:30:11.708Z,39.20
2023-05-10T04:32:50.539Z,31.27
2023-05-10T04:38:07.185Z,32.13
2023-05-10T04:40:36.720Z,32.50
2023-05-10T04:43:03.480Z,33.67
2023-05-10T04:45:32.900Z,32.63
2023-05-10T04:48:06.461Z,44.70
2023-05-10T04:50:42.193Z,37.47
2023-05-10T04:53:09.205Z,40.35
2023-05-10T05:47:46.745Z,24.80
2023-05-10T05:50:21.010Z,21.23
2023-05-10T05:52:47.877Z,19.92
2023-05-10T05:55:30.324Z,18.48
2023-05-10T05:57:57.128Z,28.53
2023-05-10T06:00:24.582Z,19.20
2023-05-10T06:03:03.674Z,19.63
2023-05-10T06:08:38.652Z,27.10
2023-05-10T06:11:10.229Z,20.10
2023-05-10T06:13:43.505Z,16.00
2023-05-10T06:16:10.421Z,15.40
2023-05-10T06:22:02.475Z,21.35
2023-05-10T06:24:29.301Z,15.30
2023-05-10T06:30:26.912Z,13.38
2023-05-10T06:36:17.989Z,15.30
2023-05-10T06:38:44.792Z,21.63
2023-05-10T06:41:21.227Z,12.23
2023-05-10T06:43:49.291Z,22.30
2023-05-10T06:46:19.258Z,13.88
2023-05-10T06:48:48.711Z,13.88
2023-05-10T06:51:25.735Z,11.37
2023-05-10T06:54:23.529Z,12.23
2023-05-10T07:00:00.264Z,12.18
2023-05-10T07:02:38.682Z,11.95
2023-05-10T07:05:05.797Z,11.83
2023-05-10T07:06:29.555Z,10.93
2023-05-10T07:07:49.662Z,11.32
2023-05-10T07:11:01.693Z,9.00
2023-05-10T07:17:03.557Z,9.63
2023-05-10T07:19:58.525Z,11.70
2023-05-10T07:22:37.163Z,10.15
2023-05-10T07:25:10.200Z,9.73
2023-05-10T07:27:54.807Z,10.10
2023-05-10T07:30:27.549Z,9.45
2023-05-10T07:32:56.449Z,10.23
2023-05-10T07:35:25.419Z,13.15
2023-05-10T07:37:57.940Z,10.55
2023-05-10T07:43:46.456Z,13.05
2023-05-10T07:49:08.355Z,11.73
2023-05-10T07:51:35.086Z,11.15
2023-05-10T07:54:12.448Z,9.43
2023-05-10T07:56:42.526Z,11.05
2023-05-10T07:59:16.452Z,12.00
2023-05-10T08:01:44.987Z,11.75
2023-05-10T08:04:29.738Z,8.05
2023-05-10T08:07:31.283Z,8.18
2023-05-10T08:09:58.242Z,8.75
2023-05-10T12:24:12.020Z,9.50
2023-05-10T12:26:51.542Z,11.00
2023-05-10T12:29:24.018Z,16.58
2023-05-10T12:31:58.738Z,14.07
2023-05-10T12:40:32.982Z,12.95
2023-05-10T12:43:17.882Z,11.68
2023-05-10T12:45:57.274Z,11.57
2023-05-10T12:48:24.248Z,12.05
2023-05-10T12:51:06.311Z,14.67
2023-05-10T12:58:49.339Z,10.57
2023-05-10T13:07:06.410Z,11.00
2023-05-10T13:12:10.243Z,11.57
2023-05-10T13:14:40.163Z,11.63
2023-05-10T13:17:10.005Z,9.67
2023-05-10T13:19:51.238Z,9.82
2023-05-10T13:22:25.644Z,9.63
2023-05-10T13:24:59.469Z,10.02
2023-05-10T13:27:32.452Z,9.95
2023-05-10T13:30:08.714Z,8.93
2023-05-10T13:32:38.523Z,10.48
2023-05-10T13:35:11.917Z,10.65
2023-05-10T13:44:08.298Z,9.80
2023-05-10T13:46:49.628Z,10.32
2023-05-10T13:49:16.267Z,9.48
2023-05-10T13:51:49.161Z,10.15
2023-05-10T13:54:23.918Z,9.77
2023-05-10T13:56:53.292Z,14.53
2023-05-10T13:59:34.427Z,10.23
2023-05-10T14:02:01.634Z,8.02
2023-05-10T14:04:31.326Z,7.97
2023-05-10T14:06:58.077Z,8.35
2023-05-10T14:09:31.942Z,9.83
2023-05-10T14:21:11.933Z,6.72
2023-05-10T14:23:57.735Z,7.93
2023-05-10T14:26:51.698Z,7.68
2023-05-10T14:29:18.542Z,7.07
2023-05-10T14:32:08.032Z,8.27
2023-05-10T14:34:32.876Z,6.75
2023-05-10T14:39:38.384Z,6.63
2023-05-10T15:00:00.004Z,8.20
2023-05-10T15:02:46.201Z,7.07
2023-05-10T15:18:19.062Z,8.13
2023-05-10T15:27:27.311Z,9.82
2023-05-10T15:30:03.019Z,9.63
2023-05-10T15:41:33.194Z,9.38
2023-05-10T15:44:05.607Z,14.30
2023-05-10T15:46:41.644Z,12.13
2023-05-10T15:49:14.509Z,14.65
2023-05-10T15:55:12.948Z,10.38
2023-05-10T15:57:52.279Z,15.80
2023-05-10T16:13:13.811Z,12.45
2023-05-10T17:56:47.070Z,9.85
2023-05-10T18:15:40.924Z,11.45
2023-05-10T18:39:06.511Z,10.82
2023-05-10T18:41:39.681Z,10.05
2023-05-10T18:44:06.488Z,9.70
2023-05-10T18:46:39.427Z,9.60
2023-05-10T18:49:06.231Z,10.17
2023-05-10T18:52:02.937Z,10.80
2023-05-10T18:54:29.689Z,11.40
2023-05-10T18:59:36.964Z,12.80
2023-05-10T19:02:06.280Z,11.50
2023-05-10T19:04:46.936Z,12.30
2023-05-10T19:07:13.683Z,12.20
2023-05-10T19:09:40.481Z,12.20
2023-05-10T19:12:07.199Z,12.85
2023-05-10T19:14:33.981Z,12.50
2023-05-10T19:17:02.587Z,11.43
2023-05-10T19:19:32.123Z,13.13
2023-05-10T19:21:58.799Z,12.45
2023-05-10T19:24:25.859Z,16.90
2023-05-10T19:26:52.781Z,12.77
2023-05-10T19:29:19.560Z,12.15
2023-05-10T19:32:01.047Z,17.95
2023-05-10T19:38:07.910Z,13.23
2023-05-10T21:52:11.824Z,13.67
2023-05-10T23:04:49.621Z,13.43
2023-05-10T23:20:45.882Z,10.85
2023-05-10T23:23:27.526Z,11.57
2023-05-10T23:26:03.415Z,12.03
2023-05-10T23:28:39.070Z,11.80
2023-05-10T23:31:10.952Z,12.80
2023-05-10T23:47:56.905Z,12.30
2023-05-10T23:50:26.299Z,19.17
2023-05-10T23:53:00.683Z,15.65
2023-05-10T23:55:30.440Z,13.67
2023-05-10T23:58:08.880Z,17.98
